createdAt,value
2023-03-20T00:00:04.080Z,3.90
2023-03-20T00:01:04.123Z,2.50
2023-03-20T00:02:04.100Z,2.60
2023-03-20T00:03:04.052Z,2.60
2023-03-20T00:04:04.125Z,3.10
2023-03-20T00:05:04.083Z,3.20
2023-03-20T00:06:04.003Z,3.00
2023-03-20T00:07:04.060Z,4.60
2023-03-20T00:08:03.967Z,4.00
2023-03-20T00:09:07.465Z,5.70
2023-03-20T00:10:03.922Z,3.80
2023-03-20T00:11:03.939Z,3.70
2023-03-20T00:12:04.009Z,3.90
2023-03-20T00:13:03.941Z,3.80
2023-03-20T00:14:03.907Z,4.00
2023-03-20T00:15:03.897Z,4.10
2023-03-20T00:16:03.964Z,4.40
2023-03-20T00:17:03.866Z,5.00
2023-03-20T00:18:03.885Z,4.60
2023-03-20T00:19:03.839Z,5.90
2023-03-20T00:20:03.819Z,5.00
2023-03-20T00:21:03.823Z,5.00
2023-03-20T00:22:03.847Z,5.70
2023-03-20T00:23:03.842Z,5.30
2023-03-20T00:24:03.995Z,5.30
2023-03-20T00:25:03.778Z,6.80
2023-03-20T00:26:03.758Z,5.50
2023-03-20T00:27:03.742Z,5.80
2023-03-20T00:28:03.770Z,5.70
2023-03-20T00:29:03.746Z,5.70
2023-03-20T00:30:03.713Z,7.30
2023-03-20T00:31:03.721Z,5.40
2023-03-20T00:32:03.702Z,5.50
2023-03-20T00:33:03.840Z,5.60
2023-03-20T00:34:03.748Z,5.50
2023-03-20T00:35:03.654Z,6.70
2023-03-20T00:36:03.676Z,5.80
2023-03-20T00:37:03.632Z,6.10
2023-03-20T00:38:03.629Z,5.60
2023-03-20T00:39:03.655Z,5.50
2023-03-20T00:40:03.614Z,6.10
2023-03-20T00:41:03.603Z,6.00
2023-03-20T00:42:03.598Z,6.50
2023-03-20T00:43:03.569Z,5.80
2023-03-20T00:44:03.568Z,6.40
2023-03-20T00:45:03.610Z,6.50
2023-03-20T00:46:03.539Z,6.30
2023-03-20T00:47:03.660Z,6.70
2023-03-20T00:48:03.532Z,6.70
2023-03-20T00:49:03.471Z,7.00
2023-03-20T00:50:03.495Z,7.00
2023-03-20T00:51:03.538Z,6.80
2023-03-20T00:52:03.437Z,6.90
2023-03-20T00:53:03.427Z,6.60
2023-03-20T00:54:03.445Z,7.60
2023-03-20T00:55:03.498Z,7.80
2023-03-20T00:56:03.430Z,9.80
2023-03-20T00:57:03.405Z,10.50
2023-03-20T00:58:03.373Z,8.90
2023-03-20T00:59:03.358Z,9.50
2023-03-20T01:00:03.414Z,9.20
2023-03-20T01:01:03.392Z,10.30
2023-03-20T01:02:03.406Z,9.60
2023-03-20T01:03:03.343Z,10.00
2023-03-20T01:04:03.293Z,9.90
2023-03-20T01:05:03.298Z,10.30
2023-03-20T01:06:03.285Z,13.00
2023-03-20T01:07:03.258Z,13.50
2023-03-20T01:08:03.261Z,13.20
2023-03-20T01:09:03.272Z,13.20
2023-03-20T01:10:03.262Z,12.60
2023-03-20T01:11:03.299Z,13.20
2023-03-20T01:12:03.186Z,15.30
2023-03-20T01:13:03.186Z,14.30
2023-03-20T01:14:03.171Z,13.20
2023-03-20T01:15:03.171Z,14.40
2023-03-20T01:16:03.300Z,13.80
2023-03-20T01:17:03.149Z,14.40
2023-03-20T01:18:03.127Z,12.80
2023-03-20T01:19:03.676Z,13.10
2023-03-20T01:20:03.141Z,16.60
2023-03-20T01:21:03.092Z,16.80
2023-03-20T01:22:03.108Z,17.00
2023-03-20T01:23:03.072Z,16.80
2023-03-20T01:24:03.052Z,17.60
2023-03-20T01:25:03.048Z,16.80
2023-03-20T01:26:03.042Z,17.10
2023-03-20T01:27:03.050Z,15.60
2023-03-20T01:28:03.493Z,19.60
2023-03-20T01:29:02.997Z,16.90
2023-03-20T01:30:03.004Z,16.40
2023-03-20T01:31:02.994Z,20.30
2023-03-20T01:32:02.994Z,19.10
2023-03-20T01:33:03.228Z,24.70
2023-03-20T01:34:02.942Z,26.90
2023-03-20T01:35:02.933Z,25.60
2023-03-20T01:36:02.948Z,28.50
2023-03-20T01:37:02.936Z,31.30
2023-03-20T01:38:02.918Z,34.50
2023-03-20T01:39:02.886Z,31.50
2023-03-20T01:40:02.859Z,32.10
2023-03-20T01:41:02.886Z,31.30
2023-03-20T01:42:02.870Z,31.20
2023-03-20T01:43:02.931Z,30.20
2023-03-20T01:44:02.845Z,31.70
2023-03-20T01:45:02.801Z,38.10
2023-03-20T01:46:02.868Z,32.10
2023-03-20T01:47:02.826Z,35.30
2023-03-20T01:48:02.885Z,34.60
2023-03-20T01:49:02.973Z,36.60
2023-03-20T01:50:03.255Z,37.10
2023-03-20T01:51:03.035Z,35.50
2023-03-20T01:52:03.294Z,37.60
2023-03-20T01:53:03.125Z,35.30
2023-03-20T01:54:03.096Z,36.90
2023-03-20T01:55:02.811Z,36.50
2023-03-20T01:56:03.705Z,35.00
2023-03-20T01:57:02.672Z,34.90
2023-03-20T01:58:04.833Z,36.10
2023-03-20T01:59:02.655Z,37.90
2023-03-20T02:00:02.652Z,40.80
2023-03-20T02:01:02.625Z,45.40
2023-03-20T02:02:02.590Z,42.60
2023-03-20T02:03:02.609Z,46.80
2023-03-20T02:04:02.611Z,45.20
2023-03-20T02:05:02.628Z,44.30
2023-03-20T02:06:02.620Z,50.50
2023-03-20T02:07:03.142Z,46.90
2023-03-20T02:08:05.868Z,44.50
2023-03-20T02:09:03.562Z,50.90
2023-03-20T02:10:02.521Z,51.90
2023-03-20T02:11:02.507Z,53.20
2023-03-20T02:12:02.546Z,51.40
2023-03-20T02:13:02.463Z,51.60
2023-03-20T02:14:03.315Z,53.50
2023-03-20T02:15:02.491Z,52.00
2023-03-20T02:16:02.455Z,53.70
2023-03-20T02:17:02.529Z,52.90
2023-03-20T02:18:02.407Z,53.20
2023-03-20T02:19:02.448Z,53.60
2023-03-20T02:20:02.484Z,53.60
2023-03-20T02:21:02.361Z,54.70
2023-03-20T02:22:02.366Z,55.60
2023-03-20T02:23:03.131Z,53.40
2023-03-20T02:24:02.353Z,54.40
2023-03-20T02:25:02.401Z,54.00
2023-03-20T02:26:02.348Z,52.60
2023-03-20T02:27:02.324Z,49.60
2023-03-20T02:28:02.322Z,53.80
2023-03-20T02:29:02.290Z,53.30
2023-03-20T02:30:02.312Z,49.10
2023-03-20T02:31:02.304Z,46.50
2023-03-20T02:32:02.271Z,48.80
2023-03-20T02:33:02.277Z,49.10
2023-03-20T02:34:02.235Z,46.20
2023-03-20T02:35:02.274Z,47.30
2023-03-20T02:36:02.265Z,42.30
2023-03-20T02:37:02.190Z,47.00
2023-03-20T02:38:02.190Z,46.10
2023-03-20T02:39:02.212Z,42.40
2023-03-20T02:40:02.204Z,46.60
2023-03-20T02:41:02.174Z,43.30
2023-03-20T02:42:02.123Z,47.60
2023-03-20T02:43:02.137Z,43.40
2023-03-20T02:44:02.128Z,48.60
2023-03-20T02:45:02.133Z,45.50
2023-03-20T02:46:02.203Z,48.00
2023-03-20T02:47:02.106Z,44.40
2023-03-20T02:48:02.082Z,43.10
2023-03-20T02:49:02.076Z,47.40
2023-03-20T02:50:02.061Z,44.60
2023-03-20T02:51:02.093Z,48.40
2023-03-20T02:52:02.017Z,45.70
2023-03-20T02:53:02.011Z,45.80
2023-03-20T02:54:02.020Z,48.50
2023-03-20T02:55:02.022Z,47.00
2023-03-20T02:56:01.979Z,47.30
2023-03-20T02:57:02.002Z,47.90
2023-03-20T02:58:01.942Z,52.60
2023-03-20T02:59:01.926Z,47.90
2023-03-20T03:00:01.941Z,49.30
2023-03-20T03:01:01.903Z,51.30
2023-03-20T03:02:01.968Z,56.20
2023-03-20T03:03:01.939Z,50.80
2023-03-20T03:04:01.905Z,57.40
2023-03-20T03:05:01.881Z,53.00
2023-03-20T03:06:01.841Z,51.20
2023-03-20T03:07:01.881Z,50.20
2023-03-20T03:08:01.854Z,53.80
2023-03-20T03:09:01.840Z,56.60
2023-03-20T03:10:01.805Z,53.40
2023-03-20T03:11:01.810Z,52.70
2023-03-20T03:12:02.801Z,54.50
2023-03-20T03:13:01.782Z,54.20
2023-03-20T03:14:01.780Z,57.80
2023-03-20T03:15:01.743Z,55.00
2023-03-20T03:16:01.765Z,56.30
2023-03-20T03:17:01.718Z,60.90
2023-03-20T03:18:01.758Z,59.90
2023-03-20T03:19:01.707Z,56.80
2023-03-20T03:20:01.696Z,55.50
2023-03-20T03:21:01.659Z,58.40
2023-03-20T03:22:01.640Z,61.10
2023-03-20T03:23:02.679Z,60.50
2023-03-20T03:24:01.631Z,60.20
2023-03-20T03:25:01.612Z,57.80
2023-03-20T03:26:01.629Z,56.90
2023-03-20T03:27:01.609Z,61.70
2023-03-20T03:28:01.585Z,61.30
2023-03-20T03:29:01.648Z,60.50
2023-03-20T03:30:01.571Z,59.80
2023-03-20T03:31:01.586Z,61.30
2023-03-20T03:32:01.561Z,63.30
2023-03-20T03:33:01.541Z,60.50
2023-03-20T03:34:01.523Z,64.80
2023-03-20T03:35:01.502Z,64.70
2023-03-20T03:36:01.508Z,65.20
2023-03-20T03:37:01.469Z,65.10
2023-03-20T03:38:01.525Z,69.00
2023-03-20T03:39:01.475Z,63.40
2023-03-20T03:40:01.434Z,65.30
2023-03-20T03:41:01.438Z,63.40
2023-03-20T03:42:01.433Z,70.50
2023-03-20T03:43:01.430Z,65.10
2023-03-20T03:44:01.434Z,63.20
2023-03-20T03:45:01.388Z,66.30
2023-03-20T03:46:01.384Z,64.80
2023-03-20T03:47:01.454Z,63.40
2023-03-20T03:48:01.378Z,68.00
2023-03-20T03:49:01.360Z,64.80
2023-03-20T03:50:01.326Z,63.60
2023-03-20T03:51:01.310Z,65.80
2023-03-20T03:52:01.309Z,66.90
2023-03-20T03:53:01.333Z,66.10
2023-03-20T03:54:01.333Z,65.80
2023-03-20T03:55:01.275Z,67.80
2023-03-20T03:56:01.256Z,65.30
2023-03-20T03:57:01.711Z,60.80
2023-03-20T03:58:01.252Z,63.50
2023-03-20T03:59:01.250Z,63.50
2023-03-20T04:00:01.226Z,68.70
2023-03-20T04:01:01.197Z,70.70
2023-03-20T04:02:01.225Z,61.30
2023-03-20T04:03:01.195Z,64.70
2023-03-20T04:04:01.163Z,64.20
2023-03-20T04:05:01.243Z,68.60
2023-03-20T04:06:01.173Z,69.20
2023-03-20T04:07:01.109Z,67.40
2023-03-20T04:08:01.133Z,64.00
2023-03-20T04:09:01.181Z,70.30
2023-03-20T04:10:01.091Z,74.30
2023-03-20T04:11:01.076Z,71.50
2023-03-20T04:12:01.084Z,73.50
2023-03-20T04:13:01.495Z,73.70
2023-03-20T04:14:01.073Z,71.60
2023-03-20T04:15:03.091Z,74.30
2023-03-20T04:16:01.064Z,71.60
2023-03-20T04:17:01.000Z,73.30
2023-03-20T04:18:01.016Z,72.90
2023-03-20T04:19:00.989Z,73.40
2023-03-20T04:20:00.973Z,70.50
2023-03-20T04:21:00.971Z,74.60
2023-03-20T04:22:01.295Z,75.30
2023-03-20T04:23:00.921Z,72.60
2023-03-20T04:24:00.917Z,71.80
2023-03-20T04:25:00.947Z,74.40
2023-03-20T04:26:00.893Z,71.70
2023-03-20T04:27:00.885Z,75.70
2023-03-20T04:28:00.876Z,75.90
2023-03-20T04:29:00.858Z,73.50
2023-03-20T04:30:00.903Z,71.50
2023-03-20T04:31:00.838Z,75.10
2023-03-20T04:32:00.848Z,75.50
2023-03-20T04:33:00.870Z,75.70
2023-03-20T04:34:00.795Z,76.60
2023-03-20T04:35:00.822Z,79.50
2023-03-20T04:36:00.827Z,80.30
2023-03-20T04:37:00.776Z,79.00
2023-03-20T04:38:00.753Z,82.50
2023-03-20T04:39:00.727Z,78.20
2023-03-20T04:40:00.743Z,80.10
2023-03-20T04:41:00.737Z,77.70
2023-03-20T04:42:00.713Z,80.00
2023-03-20T04:43:00.712Z,86.40
2023-03-20T04:44:00.680Z,81.50
2023-03-20T04:45:00.674Z,82.30
2023-03-20T04:46:00.795Z,81.30
2023-03-20T04:47:00.650Z,76.40
2023-03-20T04:48:00.653Z,78.50
2023-03-20T04:49:00.628Z,83.80
2023-03-20T04:50:00.635Z,85.30
2023-03-20T04:51:00.653Z,79.90
2023-03-20T04:52:00.585Z,82.20
2023-03-20T04:53:00.597Z,79.50
2023-03-20T04:54:00.572Z,78.70
2023-03-20T04:55:00.554Z,83.90
2023-03-20T04:56:02.030Z,81.50
2023-03-20T04:57:00.546Z,82.30
2023-03-20T04:58:00.517Z,86.30
2023-03-20T04:59:00.483Z,90.10
2023-03-20T05:00:00.476Z,96.70
2023-03-20T05:01:00.549Z,91.80
2023-03-20T05:02:00.489Z,87.70
2023-03-20T05:03:00.451Z,87.30
2023-03-20T05:04:00.624Z,91.10
2023-03-20T05:05:00.420Z,93.80
2023-03-20T05:06:00.428Z,93.30
2023-03-20T05:07:00.475Z,92.20
2023-03-20T05:08:01.156Z,94.80
2023-03-20T05:09:00.488Z,90.80
2023-03-20T05:10:01.405Z,90.20
2023-03-20T05:11:00.429Z,88.20
2023-03-20T05:12:00.401Z,90.90
2023-03-20T05:13:00.348Z,90.50
2023-03-20T05:14:00.311Z,92.20
2023-03-20T05:15:00.324Z,96.40
2023-03-20T05:16:00.302Z,102.60
2023-03-20T05:17:01.031Z,105.60
2023-03-20T05:18:00.295Z,100.90
2023-03-20T05:19:00.269Z,98.50
2023-03-20T05:20:00.254Z,95.70
2023-03-20T05:21:00.221Z,103.30
2023-03-20T05:22:00.240Z,102.20
2023-03-20T05:23:00.213Z,104.20
2023-03-20T05:24:00.201Z,100.10
2023-03-20T05:25:00.199Z,110.50
2023-03-20T05:26:00.172Z,109.80
2023-03-20T05:27:00.153Z,112.10
2023-03-20T05:28:00.211Z,120.30
2023-03-20T05:29:00.116Z,113.30
2023-03-20T05:30:00.129Z,120.30
2023-03-20T05:31:00.174Z,117.80
2023-03-20T05:32:00.095Z,119.30
2023-03-20T05:33:00.203Z,111.50
2023-03-20T05:34:00.092Z,110.50
2023-03-20T05:35:00.052Z,125.50
2023-03-20T05:36:00.058Z,115.20
2023-03-20T05:37:00.067Z,122.40
2023-03-20T05:38:00.069Z,107.80
2023-03-20T05:38:59.998Z,119.60
2023-03-20T05:40:00.004Z,120.10
2023-03-20T05:40:59.988Z,119.90
2023-03-20T05:41:59.960Z,116.30
2023-03-20T05:43:00.019Z,117.60
2023-03-20T05:43:59.936Z,121.20
2023-03-20T05:44:59.929Z,120.50
2023-03-20T05:45:59.999Z,121.00
2023-03-20T05:46:59.915Z,128.80
2023-03-20T05:47:59.917Z,123.60
2023-03-20T05:48:59.932Z,123.90
2023-03-20T05:49:59.868Z,118.70
2023-03-20T05:50:59.866Z,116.70
2023-03-20T05:51:59.866Z,115.80
2023-03-20T05:52:59.842Z,116.20
2023-03-20T05:53:59.847Z,114.30
2023-03-20T05:54:59.832Z,112.30
2023-03-20T05:55:59.789Z,109.00
2023-03-20T05:56:59.845Z,112.70
2023-03-20T05:57:59.798Z,110.40
2023-03-20T05:58:59.812Z,122.80
2023-03-20T05:59:59.745Z,107.90
2023-03-20T06:00:59.760Z,117.30
2023-03-20T06:01:59.756Z,113.30
2023-03-20T06:02:59.845Z,112.10
2023-03-20T06:03:59.823Z,117.70
2023-03-20T06:04:59.719Z,120.90
2023-03-20T06:05:59.672Z,117.30
2023-03-20T06:06:59.675Z,118.90
2023-03-20T06:07:59.651Z,113.80
2023-03-20T06:08:59.654Z,112.20
2023-03-20T06:09:59.655Z,116.80
2023-03-20T06:10:59.632Z,114.40
2023-03-20T06:11:59.610Z,120.30
2023-03-20T06:12:59.613Z,110.80
2023-03-20T06:13:59.592Z,114.80
2023-03-20T06:14:59.625Z,110.10
2023-03-20T06:15:59.564Z,105.00
2023-03-20T06:16:59.551Z,116.40
2023-03-20T06:17:59.553Z,103.90
2023-03-20T06:18:59.556Z,105.50
2023-03-20T06:19:59.576Z,101.20
2023-03-20T06:20:59.495Z,90.80
2023-03-20T06:21:59.499Z,97.30
2023-03-20T06:22:59.522Z,88.60
2023-03-20T06:23:59.483Z,95.60
2023-03-20T06:24:59.481Z,97.80
2023-03-20T06:25:59.484Z,102.60
2023-03-20T06:26:59.461Z,104.40
2023-03-20T06:27:59.422Z,106.10
2023-03-20T06:28:59.422Z,99.40
2023-03-20T06:29:59.426Z,96.50
2023-03-20T06:30:59.447Z,102.10
2023-03-20T06:31:59.361Z,102.60
2023-03-20T06:32:59.442Z,96.50
2023-03-20T06:33:59.414Z,94.20
2023-03-20T06:34:59.337Z,101.50
2023-03-20T06:35:59.387Z,101.80
2023-03-20T06:36:59.311Z,106.10
2023-03-20T06:37:59.288Z,111.10
2023-03-20T06:38:59.307Z,110.00
2023-03-20T06:39:59.273Z,108.90
2023-03-20T06:40:59.252Z,113.90
2023-03-20T06:41:59.291Z,119.10
2023-03-20T06:42:59.224Z,116.30
2023-03-20T06:43:59.241Z,112.80
2023-03-20T06:44:59.214Z,120.40
2023-03-20T06:45:59.208Z,117.80
2023-03-20T06:46:59.190Z,108.70
2023-03-20T06:47:59.180Z,109.30
2023-03-20T06:48:59.176Z,114.60
2023-03-20T06:49:59.152Z,108.50
2023-03-20T06:50:59.192Z,106.10
2023-03-20T06:51:59.172Z,107.00
2023-03-20T06:52:59.114Z,115.90
2023-03-20T06:53:59.111Z,121.40
2023-03-20T06:54:59.117Z,122.70
2023-03-20T06:55:59.070Z,116.80
2023-03-20T06:56:59.134Z,120.30
2023-03-20T06:57:59.046Z,120.80
2023-03-20T06:58:59.047Z,123.30
2023-03-20T06:59:59.041Z,117.60
2023-03-20T07:00:59.056Z,128.20
2023-03-20T07:01:59.081Z,133.70
2023-03-20T07:03:01.079Z,145.70
2023-03-20T07:03:58.967Z,144.70
2023-03-20T07:04:59.134Z,132.60
2023-03-20T07:05:58.970Z,129.90
2023-03-20T07:06:59.269Z,125.30
2023-03-20T07:07:58.961Z,133.70
2023-03-20T07:08:58.935Z,126.20
2023-03-20T07:09:58.906Z,118.00
2023-03-20T07:10:58.933Z,114.20
2023-03-20T07:11:58.889Z,116.80
2023-03-20T07:12:58.913Z,112.10
2023-03-20T07:13:58.914Z,107.80
2023-03-20T07:15:00.388Z,110.10
2023-03-20T07:16:04.580Z,104.10
2023-03-20T07:16:59.027Z,108.30
2023-03-20T07:17:58.877Z,109.00
2023-03-20T07:18:58.891Z,112.40
2023-03-20T07:19:58.806Z,113.80
2023-03-20T07:20:58.817Z,113.70
2023-03-20T07:21:58.800Z,115.80
2023-03-20T07:22:58.832Z,115.30
2023-03-20T07:23:58.806Z,102.70
2023-03-20T07:24:58.898Z,106.50
2023-03-20T07:25:58.750Z,103.70
2023-03-20T07:26:58.729Z,106.70
2023-03-20T07:27:58.782Z,104.80
2023-03-20T07:28:59.731Z,106.60
2023-03-20T07:29:58.714Z,106.60
2023-03-20T07:30:58.681Z,128.50
2023-03-20T07:31:58.671Z,134.90
2023-03-20T07:32:58.716Z,128.80
2023-03-20T07:33:58.650Z,120.40
2023-03-20T07:34:58.642Z,114.30
2023-03-20T07:35:58.739Z,116.40
2023-03-20T07:36:58.608Z,119.40
2023-03-20T07:37:58.594Z,120.50
2023-03-20T07:38:58.627Z,126.00
2023-03-20T07:39:58.704Z,123.20
2023-03-20T07:40:58.590Z,128.30
2023-03-20T07:41:58.602Z,130.90
2023-03-20T07:42:58.527Z,139.10
2023-03-20T07:43:58.712Z,133.90
2023-03-20T07:44:58.585Z,141.60
2023-03-20T07:45:58.547Z,145.60
2023-03-20T07:46:58.625Z,147.30
2023-03-20T07:47:58.584Z,141.40
2023-03-20T07:48:58.588Z,145.00
2023-03-20T07:49:58.455Z,144.90
2023-03-20T07:50:58.549Z,154.00
2023-03-20T07:51:58.497Z,147.50
2023-03-20T07:52:58.630Z,157.60
2023-03-20T07:53:58.426Z,153.90
2023-03-20T07:54:58.533Z,149.40
2023-03-20T07:55:58.476Z,156.10
2023-03-20T07:56:59.525Z,138.80
2023-03-20T07:57:58.686Z,136.40
2023-03-20T07:58:58.623Z,144.40
2023-03-20T07:59:58.717Z,186.10
2023-03-20T08:00:59.175Z,141.80
2023-03-20T08:01:59.101Z,149.90
2023-03-20T08:02:58.394Z,149.30
2023-03-20T08:03:58.567Z,153.30
2023-03-20T08:04:58.350Z,154.40
2023-03-20T08:05:58.791Z,142.00
2023-03-20T08:06:58.232Z,151.70
2023-03-20T08:07:58.214Z,141.10
2023-03-20T08:08:58.201Z,146.70
2023-03-20T08:09:58.202Z,139.30
2023-03-20T08:10:58.793Z,129.50
2023-03-20T08:11:58.187Z,131.10
2023-03-20T08:12:58.161Z,124.60
2023-03-20T08:13:58.178Z,123.60
2023-03-20T08:14:58.181Z,129.20
2023-03-20T08:15:58.113Z,127.00
2023-03-20T08:17:12.906Z,105.30
2023-03-20T08:17:58.145Z,105.30
2023-03-20T08:18:58.494Z,111.70
2023-03-20T08:19:58.201Z,125.90
2023-03-20T08:20:58.936Z,125.20
2023-03-20T08:21:58.078Z,111.00
2023-03-20T08:22:58.065Z,104.20
2023-03-20T08:23:58.026Z,94.60
2023-03-20T08:24:59.026Z,102.50
2023-03-20T08:25:57.997Z,102.50
2023-03-20T08:26:57.988Z,110.60
2023-03-20T08:27:58.000Z,95.60
2023-03-20T08:28:58.091Z,101.50
2023-03-20T08:29:57.955Z,93.30
2023-03-20T08:30:58.050Z,91.60
2023-03-20T08:31:57.943Z,87.40
2023-03-20T08:32:58.010Z,86.40
2023-03-20T08:33:57.893Z,82.40
2023-03-20T08:34:57.886Z,78.70
2023-03-20T08:35:57.932Z,81.80
2023-03-20T08:36:57.873Z,83.20
2023-03-20T08:37:57.913Z,78.70
2023-03-20T08:38:57.868Z,75.00
2023-03-20T08:39:57.831Z,71.90
2023-03-20T08:40:57.838Z,72.40
2023-03-20T08:41:59.662Z,69.50
2023-03-20T08:42:57.800Z,67.10
2023-03-20T08:43:57.813Z,68.50
2023-03-20T08:44:57.773Z,68.10
2023-03-20T08:45:57.754Z,64.50
2023-03-20T08:46:57.751Z,59.80
2023-03-20T08:47:57.721Z,61.20
2023-03-20T08:48:57.740Z,59.90
2023-03-20T08:49:57.737Z,60.20
2023-03-20T08:50:57.736Z,62.30
2023-03-20T08:51:57.693Z,61.30
2023-03-20T08:52:57.663Z,56.30
2023-03-20T08:53:57.726Z,58.70
2023-03-20T08:54:57.666Z,62.50
2023-03-20T08:55:57.631Z,56.30
2023-03-20T08:56:57.619Z,55.00
2023-03-20T08:57:57.599Z,55.30
2023-03-20T08:58:57.632Z,53.90
2023-03-20T08:59:57.585Z,48.80
2023-03-20T09:00:57.572Z,49.60
2023-03-20T09:01:57.832Z,49.50
2023-03-20T09:02:57.587Z,52.30
2023-03-20T09:03:57.530Z,55.00
2023-03-20T09:04:57.600Z,52.70
2023-03-20T09:05:57.531Z,51.50
2023-03-20T09:06:57.512Z,47.40
2023-03-20T09:07:57.480Z,49.30
2023-03-20T09:08:57.482Z,50.10
2023-03-20T09:09:57.506Z,47.80
2023-03-20T09:10:57.450Z,45.60
2023-03-20T09:11:57.452Z,46.00
2023-03-20T09:12:57.420Z,44.60
2023-03-20T09:13:57.408Z,43.90
2023-03-20T09:14:57.438Z,46.30
2023-03-20T09:15:57.476Z,46.20
2023-03-20T09:16:57.365Z,48.10
2023-03-20T09:17:57.430Z,44.60
2023-03-20T09:18:57.373Z,42.80
2023-03-20T09:19:57.347Z,41.00
2023-03-20T09:20:57.360Z,38.10
2023-03-20T09:21:57.306Z,39.00
2023-03-20T09:22:57.353Z,38.30
2023-03-20T09:23:57.302Z,31.80
2023-03-20T09:24:57.316Z,32.50
2023-03-20T09:25:57.309Z,33.50
2023-03-20T09:26:57.288Z,33.00
2023-03-20T09:27:57.262Z,32.80
2023-03-20T09:28:57.339Z,31.30
2023-03-20T09:29:57.229Z,31.50
2023-03-20T09:30:57.334Z,29.70
2023-03-20T09:31:57.274Z,23.70
2023-03-20T09:32:57.207Z,24.10
2023-03-20T09:33:57.213Z,21.70
2023-03-20T09:34:57.196Z,23.60
2023-03-20T09:35:57.244Z,24.30
2023-03-20T09:36:57.170Z,24.50
2023-03-20T09:37:57.137Z,24.30
2023-03-20T09:38:57.134Z,23.80
2023-03-20T09:39:57.120Z,24.20
2023-03-20T09:40:57.195Z,26.90
2023-03-20T09:41:57.859Z,23.10
2023-03-20T09:42:57.080Z,20.30
2023-03-20T09:43:57.066Z,22.50
2023-03-20T09:44:57.117Z,21.20
2023-03-20T09:45:57.052Z,20.70
2023-03-20T09:47:12.534Z,21.20
2023-03-20T09:47:57.050Z,20.20
2023-03-20T09:48:57.009Z,20.50
2023-03-20T09:49:57.045Z,22.80
2023-03-20T09:50:57.008Z,22.60
2023-03-20T09:51:56.974Z,23.90
2023-03-20T09:52:56.978Z,21.10
2023-03-20T09:53:59.858Z,21.80
2023-03-20T09:54:56.948Z,21.90
2023-03-20T09:55:57.002Z,22.80
2023-03-20T09:56:56.930Z,22.40
2023-03-20T09:57:56.944Z,25.20
2023-03-20T09:58:56.959Z,24.90
2023-03-20T09:59:56.856Z,22.40
2023-03-20T10:00:57.092Z,20.40
2023-03-20T10:01:56.875Z,22.40
2023-03-20T10:02:56.904Z,24.30
2023-03-20T10:03:56.846Z,23.40
2023-03-20T10:04:56.889Z,19.00
2023-03-20T10:05:56.831Z,18.20
2023-03-20T10:06:56.830Z,17.70
2023-03-20T10:07:56.793Z,16.50
2023-03-20T10:08:56.806Z,16.30
2023-03-20T10:09:56.905Z,14.70
2023-03-20T10:10:56.721Z,16.10
2023-03-20T10:11:56.734Z,16.10
2023-03-20T10:12:56.712Z,15.20
2023-03-20T10:13:56.801Z,15.40
2023-03-20T10:14:56.779Z,15.40
2023-03-20T10:15:56.714Z,20.10
2023-03-20T10:16:56.692Z,25.30
2023-03-20T10:17:56.650Z,31.80
2023-03-20T10:18:56.685Z,32.50
2023-03-20T10:19:56.686Z,31.10
2023-03-20T10:20:56.639Z,32.00
2023-03-20T10:21:56.666Z,26.20
2023-03-20T10:22:56.611Z,28.10
2023-03-20T10:23:56.609Z,31.50
2023-03-20T10:24:56.622Z,31.00
2023-03-20T10:25:56.592Z,28.30
2023-03-20T10:26:56.591Z,28.80
2023-03-20T10:27:56.547Z,26.50
2023-03-20T10:28:56.543Z,27.90
2023-03-20T10:29:56.524Z,30.60
2023-03-20T10:30:56.559Z,25.50
2023-03-20T10:31:56.520Z,25.90
2023-03-20T10:32:56.549Z,28.20
2023-03-20T10:33:56.512Z,27.30
2023-03-20T10:34:56.472Z,26.20
2023-03-20T10:35:56.562Z,27.00
2023-03-20T10:36:56.430Z,27.30
2023-03-20T10:37:56.461Z,26.80
2023-03-20T10:38:56.461Z,24.90
2023-03-20T10:39:56.410Z,26.70
2023-03-20T10:40:56.415Z,25.60
2023-03-20T10:41:56.395Z,25.00
2023-03-20T10:42:56.422Z,25.10
2023-03-20T10:43:56.400Z,25.20
2023-03-20T10:44:56.368Z,24.20
2023-03-20T10:45:57.398Z,24.90
2023-03-20T10:46:56.475Z,25.50
2023-03-20T10:47:56.380Z,26.50
2023-03-20T10:48:56.313Z,26.40
2023-03-20T10:49:56.315Z,25.60
2023-03-20T10:50:56.368Z,24.50
2023-03-20T10:51:56.294Z,24.70
2023-03-20T10:52:56.272Z,23.70
2023-03-20T10:53:56.286Z,21.90
2023-03-20T10:54:56.276Z,21.00
2023-03-20T10:55:56.761Z,23.60
2023-03-20T10:56:56.231Z,20.40
2023-03-20T10:57:56.232Z,21.40
2023-03-20T10:58:56.227Z,20.60
2023-03-20T10:59:56.219Z,20.40
2023-03-20T11:00:56.427Z,20.10
2023-03-20T11:01:56.258Z,21.00
2023-03-20T11:02:56.160Z,19.80
2023-03-20T11:03:56.161Z,20.40
2023-03-20T11:04:56.629Z,20.70
2023-03-20T11:06:08.884Z,20.70
2023-03-20T11:06:57.119Z,20.80
2023-03-20T11:07:56.150Z,21.00
2023-03-20T11:08:56.108Z,20.10
2023-03-20T11:09:56.102Z,18.70
2023-03-20T11:10:58.297Z,19.00
2023-03-20T11:11:56.113Z,20.30
2023-03-20T11:12:56.075Z,21.20
2023-03-20T11:13:56.066Z,18.80
2023-03-20T11:14:56.033Z,19.40
2023-03-20T11:15:56.023Z,18.30
2023-03-20T11:16:56.161Z,19.20
2023-03-20T11:17:55.994Z,19.70
2023-03-20T11:18:56.037Z,19.80
2023-03-20T11:19:55.982Z,18.90
2023-03-20T11:20:55.976Z,19.40
2023-03-20T11:21:56.029Z,19.00
2023-03-20T11:22:55.953Z,18.90
2023-03-20T11:23:55.980Z,18.20
2023-03-20T11:24:55.926Z,20.90
2023-03-20T11:25:55.915Z,15.00
2023-03-20T11:26:56.004Z,15.70
2023-03-20T11:27:55.932Z,14.20
2023-03-20T11:28:56.490Z,13.90
2023-03-20T11:29:55.908Z,13.20
2023-03-20T11:31:04.361Z,14.20
2023-03-20T11:31:55.929Z,13.50
2023-03-20T11:32:55.902Z,12.90
2023-03-20T11:33:55.838Z,13.60
2023-03-20T11:34:55.800Z,14.70
2023-03-20T11:35:55.927Z,16.20
2023-03-20T11:37:08.692Z,15.30
2023-03-20T11:37:55.863Z,15.50
2023-03-20T11:38:55.847Z,14.20
2023-03-20T11:39:55.845Z,14.10
2023-03-20T11:40:55.976Z,13.60
2023-03-20T11:41:55.815Z,13.00
2023-03-20T11:42:55.790Z,14.20
2023-03-20T11:43:55.783Z,15.00
2023-03-20T11:44:55.836Z,15.10
2023-03-20T11:45:55.800Z,14.00
2023-03-20T11:46:55.793Z,15.00
2023-03-20T11:47:55.860Z,14.40
2023-03-20T11:48:55.739Z,13.10
2023-03-20T11:49:55.705Z,14.30
2023-03-20T11:50:56.916Z,14.10
2023-03-20T11:51:55.677Z,15.10
2023-03-20T11:52:55.738Z,14.50
2023-03-20T11:53:55.694Z,15.20
2023-03-20T11:55:01.262Z,15.70
2023-03-20T11:55:55.796Z,17.10
2023-03-20T11:56:55.711Z,16.30
2023-03-20T11:57:55.712Z,18.20
2023-03-20T12:00:43.048Z,14.20
2023-03-20T12:01:44.791Z,13.20
2023-03-20T12:02:43.041Z,13.60
2023-03-20T12:03:43.225Z,12.20
2023-03-20T12:04:42.942Z,11.30
2023-03-20T12:05:42.883Z,12.50
2023-03-20T12:06:42.882Z,10.20
2023-03-20T12:07:42.868Z,9.30
2023-03-20T12:08:42.885Z,9.90
2023-03-20T12:09:42.870Z,10.20
2023-03-20T12:10:42.857Z,8.50
2023-03-20T12:11:42.813Z,9.00
2023-03-20T12:12:42.826Z,9.20
2023-03-20T12:13:42.792Z,11.40
2023-03-20T12:14:42.822Z,9.90
2023-03-20T12:15:42.802Z,7.60
2023-03-20T12:16:43.346Z,7.30
2023-03-20T12:17:42.743Z,8.00
2023-03-20T12:18:42.731Z,8.70
2023-03-20T12:19:42.923Z,7.60
2023-03-20T12:20:42.739Z,7.70
2023-03-20T12:21:42.701Z,8.80
2023-03-20T12:22:42.685Z,10.50
2023-03-20T12:23:42.684Z,9.10
2023-03-20T12:24:42.659Z,9.40
2023-03-20T12:25:42.699Z,9.00
2023-03-20T12:26:42.644Z,11.40
2023-03-20T12:27:42.633Z,10.00
2023-03-20T12:28:42.638Z,13.90
2023-03-20T12:29:42.624Z,11.40
2023-03-20T12:30:42.630Z,10.70
2023-03-20T12:31:42.584Z,8.70
2023-03-20T12:32:42.586Z,11.00
2023-03-20T12:33:42.610Z,9.50
2023-03-20T12:34:42.552Z,9.80
2023-03-20T12:35:42.578Z,11.40
2023-03-20T12:36:42.539Z,9.50
2023-03-20T12:37:42.535Z,10.70
2023-03-20T12:38:42.516Z,11.80
2023-03-20T12:39:42.496Z,11.70
2023-03-20T12:40:42.485Z,12.40
2023-03-20T12:41:43.621Z,10.00
2023-03-20T12:42:43.560Z,11.00
2023-03-20T12:43:43.559Z,13.10
2023-03-20T12:44:43.540Z,10.70
2023-03-20T12:45:44.954Z,10.90
2023-03-20T12:46:43.584Z,11.40
2023-03-20T12:47:43.512Z,10.30
2023-03-20T12:48:43.577Z,10.00
2023-03-20T12:49:43.495Z,9.90
2023-03-20T12:50:43.479Z,9.50